createdAt,value
2024-02-06T00:00:43.033Z,70.38
2024-02-06T00:03:13.575Z,70.51
2024-02-06T00:05:44.015Z,70.53
2024-02-06T00:08:14.587Z,70.63
2024-02-06T00:10:45.242Z,70.36
2024-02-06T00:13:15.870Z,70.66
2024-02-06T00:15:47.595Z,70.75
2024-02-06T00:18:18.303Z,70.76
2024-02-06T00:20:48.822Z,70.78
2024-02-06T00:23:19.372Z,70.94
2024-02-06T00:25:49.664Z,70.93
2024-02-06T00:28:20.746Z,70.83
2024-02-06T00:30:52.418Z,70.93
2024-02-06T00:33:26.981Z,71.06
2024-02-06T00:35:57.907Z,70.86
2024-02-06T00:38:28.354Z,71.09
2024-02-06T00:40:58.868Z,71.16
2024-02-06T00:43:29.434Z,71.12
2024-02-06T00:46:01.301Z,71.19
2024-02-06T00:48:31.946Z,71.11
2024-02-06T00:51:02.714Z,71.04
2024-02-06T00:53:33.191Z,71.23
2024-02-06T00:56:03.731Z,71.09
2024-02-06T00:58:34.570Z,71.60
2024-02-06T01:01:05.245Z,71.49
2024-02-06T01:03:36.092Z,71.44
2024-02-06T01:06:06.737Z,71.51
2024-02-06T01:08:37.310Z,71.44
2024-02-06T01:11:07.949Z,71.33
2024-02-06T01:13:38.791Z,71.81
2024-02-06T01:16:11.164Z,71.67
2024-02-06T01:18:41.920Z,71.77
2024-02-06T01:21:12.433Z,72.05
2024-02-06T01:23:43.204Z,71.67
2024-02-06T01:26:17.130Z,72.08
2024-02-06T01:28:49.294Z,71.95
2024-02-06T01:31:20.033Z,71.93
2024-02-06T01:33:50.607Z,71.93
2024-02-06T01:36:21.283Z,71.98
2024-02-06T01:38:51.761Z,72.07
2024-02-06T01:41:22.649Z,71.93
2024-02-06T01:43:53.121Z,71.89
2024-02-06T01:46:27.206Z,71.96
2024-02-06T01:48:59.583Z,72.00
2024-02-06T01:51:35.094Z,72.32
2024-02-06T01:54:06.272Z,71.93
2024-02-06T01:56:38.982Z,71.91
2024-02-06T01:59:10.094Z,71.67
2024-02-06T02:01:40.448Z,71.62
2024-02-06T02:04:13.202Z,71.17
2024-02-06T02:06:43.963Z,71.05
2024-02-06T02:09:14.532Z,71.20
2024-02-06T02:11:46.002Z,70.93
2024-02-06T02:14:17.443Z,71.12
2024-02-06T02:16:48.726Z,71.03
2024-02-06T02:19:19.624Z,70.64
2024-02-06T02:21:50.275Z,70.71
2024-02-06T02:24:23.102Z,70.61
2024-02-06T02:26:53.873Z,70.42
2024-02-06T02:29:25.788Z,70.23
2024-02-06T02:31:57.724Z,69.85
2024-02-06T02:34:28.356Z,70.62
2024-02-06T02:36:58.995Z,70.48
2024-02-06T02:39:29.490Z,70.21
2024-02-06T02:41:59.948Z,69.97
2024-02-06T02:44:30.379Z,69.80
2024-02-06T02:47:00.865Z,69.64
2024-02-06T02:49:31.437Z,69.64
2024-02-06T02:52:02.083Z,69.35
2024-02-06T02:54:32.645Z,69.21
2024-02-06T02:57:03.177Z,69.10
2024-02-06T02:59:33.605Z,68.87
2024-02-06T03:02:04.260Z,69.16
2024-02-06T03:04:35.450Z,68.86
2024-02-06T03:07:06.747Z,68.45
2024-02-06T03:09:39.317Z,68.57
2024-02-06T03:12:11.041Z,68.73
2024-02-06T03:14:41.498Z,68.68
2024-02-06T03:17:11.914Z,68.35
2024-02-06T03:19:44.292Z,67.65
2024-02-06T03:22:14.857Z,67.63
2024-02-06T03:24:45.307Z,66.77
2024-02-06T03:27:15.688Z,66.48
2024-02-06T03:29:46.813Z,66.47
2024-02-06T03:32:17.572Z,67.07
2024-02-06T03:34:48.064Z,67.22
2024-02-06T03:37:19.531Z,67.31
2024-02-06T03:39:50.301Z,67.49
2024-02-06T03:42:21.396Z,67.21
2024-02-06T03:44:52.427Z,67.25
2024-02-06T03:47:23.330Z,66.99
2024-02-06T03:49:53.858Z,66.77
2024-02-06T03:52:24.588Z,66.92
2024-02-06T03:54:55.175Z,66.97
2024-02-06T03:57:25.854Z,66.31
2024-02-06T03:59:56.482Z,66.46
2024-02-06T04:02:27.414Z,66.22
2024-02-06T04:04:58.015Z,65.37
2024-02-06T04:07:28.621Z,66.16
2024-02-06T04:09:59.259Z,65.83
2024-02-06T04:12:29.779Z,65.42
2024-02-06T04:15:00.406Z,65.26
2024-02-06T04:17:30.907Z,65.54
2024-02-06T04:20:01.556Z,66.06
2024-02-06T04:22:32.129Z,65.61
2024-02-06T04:25:02.716Z,65.59
2024-02-06T04:27:33.420Z,65.49
2024-02-06T04:30:03.958Z,65.12
2024-02-06T04:32:35.262Z,65.45
2024-02-06T04:35:05.640Z,64.82
2024-02-06T04:37:36.372Z,64.52
2024-02-06T04:40:07.238Z,64.05
2024-02-06T04:42:37.935Z,63.98
2024-02-06T04:45:10.028Z,63.79
2024-02-06T04:47:40.631Z,63.49
2024-02-06T04:50:11.565Z,63.00
2024-02-06T04:52:42.453Z,63.00
2024-02-06T04:55:13.382Z,62.74
2024-02-06T04:57:44.133Z,63.16
2024-02-06T05:00:18.213Z,63.43
2024-02-06T05:02:49.163Z,62.74
2024-02-06T05:05:19.757Z,62.54
2024-02-06T05:07:51.043Z,62.35
2024-02-06T05:10:21.793Z,62.59
2024-02-06T05:12:52.331Z,62.64
2024-02-06T05:15:22.794Z,62.09
2024-02-06T05:17:53.327Z,62.05
2024-02-06T05:20:23.854Z,61.60
2024-02-06T05:22:54.292Z,61.49
2024-02-06T05:25:25.228Z,60.99
2024-02-06T05:27:55.976Z,61.19
2024-02-06T05:30:26.693Z,60.79
2024-02-06T05:32:57.346Z,60.45
2024-02-06T05:35:27.954Z,60.81
2024-02-06T05:38:01.553Z,59.94
2024-02-06T05:40:33.341Z,59.84
2024-02-06T05:43:03.951Z,59.38
2024-02-06T05:45:35.331Z,60.13
2024-02-06T05:48:05.521Z,60.10
2024-02-06T05:50:37.008Z,59.67
2024-02-06T05:53:07.916Z,59.71
2024-02-06T05:55:38.413Z,60.10
2024-02-06T05:58:08.834Z,59.70
2024-02-06T06:00:39.222Z,59.70
2024-02-06T06:03:09.861Z,59.44
2024-02-06T06:05:40.458Z,59.20
2024-02-06T06:08:11.160Z,59.00
2024-02-06T06:10:41.823Z,58.56
2024-02-06T06:13:12.317Z,58.96
2024-02-06T06:15:43.663Z,58.59
2024-02-06T06:18:14.307Z,58.75
2024-02-06T06:20:44.929Z,58.75
2024-02-06T06:23:15.423Z,58.44
2024-02-06T06:25:45.730Z,58.53
2024-02-06T06:28:16.300Z,58.37
2024-02-06T06:30:46.857Z,58.43
2024-02-06T06:33:17.424Z,58.67
2024-02-06T06:35:48.147Z,58.97
2024-02-06T06:38:18.712Z,59.21
2024-02-06T06:40:49.320Z,59.08
2024-02-06T06:43:20.312Z,58.83
2024-02-06T06:45:50.879Z,58.86
2024-02-06T06:48:21.744Z,59.23
2024-02-06T06:50:52.327Z,59.51
2024-02-06T06:53:23.160Z,59.04
2024-02-06T06:55:53.838Z,59.53
2024-02-06T06:58:24.410Z,59.43
2024-02-06T07:00:55.907Z,59.05
2024-02-06T07:03:26.549Z,59.14
2024-02-06T07:05:57.236Z,59.22
2024-02-06T07:08:27.723Z,59.59
2024-02-06T07:10:58.262Z,59.27
2024-02-06T07:13:28.590Z,59.08
2024-02-06T07:15:59.149Z,59.22
2024-02-06T07:18:29.820Z,59.28
2024-02-06T07:21:00.316Z,59.00
2024-02-06T07:23:30.970Z,58.99
2024-02-06T07:26:03.678Z,59.15
2024-02-06T07:28:35.947Z,58.82
2024-02-06T07:31:06.731Z,58.94
2024-02-06T07:33:38.127Z,59.31
2024-02-06T07:36:09.722Z,59.01
2024-02-06T07:38:40.336Z,59.23
2024-02-06T07:41:10.923Z,59.38
2024-02-06T07:43:41.414Z,59.33
2024-02-06T07:46:12.037Z,59.25
2024-02-06T07:49:06.807Z,59.12
2024-02-06T07:51:38.181Z,59.38
2024-02-06T07:54:44.420Z,59.31
2024-02-06T07:57:18.210Z,59.00
2024-02-06T07:59:50.311Z,59.01
2024-02-06T08:02:21.188Z,59.02
2024-02-06T08:04:57.106Z,58.82
2024-02-06T08:07:33.735Z,58.92
2024-02-06T08:10:08.687Z,59.22
2024-02-06T08:12:42.194Z,59.29
2024-02-06T08:15:13.119Z,59.47
2024-02-06T08:17:45.836Z,59.24
2024-02-06T08:20:17.114Z,59.13
2024-02-06T08:22:53.522Z,59.29
2024-02-06T08:25:32.067Z,59.27
2024-02-06T08:28:09.299Z,58.72
2024-02-06T08:30:40.045Z,58.85
2024-02-06T08:33:10.537Z,58.67
2024-02-06T08:35:41.094Z,58.38
2024-02-06T08:38:15.544Z,58.57
2024-02-06T08:40:46.411Z,58.01
2024-02-06T08:43:18.328Z,58.09
2024-02-06T08:45:49.424Z,58.58
2024-02-06T08:48:20.466Z,58.00
2024-02-06T08:50:53.186Z,58.08
2024-02-06T08:53:23.688Z,58.12
2024-02-06T08:55:54.190Z,57.71
2024-02-06T08:58:25.422Z,57.46
2024-02-06T09:00:56.406Z,57.82
2024-02-06T09:03:27.001Z,57.52
2024-02-06T09:05:57.922Z,57.72
2024-02-06T09:08:28.512Z,57.80
2024-02-06T09:10:58.976Z,57.84
2024-02-06T09:13:29.761Z,57.65
2024-02-06T09:16:02.186Z,57.86
2024-02-06T09:18:33.552Z,57.71
2024-02-06T09:21:04.778Z,57.80
2024-02-06T09:23:35.149Z,58.21
2024-02-06T09:26:05.620Z,58.13
2024-02-06T09:28:36.129Z,58.31
2024-02-06T09:31:06.956Z,58.26
2024-02-06T09:33:37.868Z,58.15
2024-02-06T09:36:10.831Z,58.06
2024-02-06T09:38:41.478Z,58.08
2024-02-06T09:41:14.059Z,58.21
2024-02-06T09:43:47.003Z,58.00
2024-02-06T09:46:17.997Z,58.16
2024-02-06T09:48:48.654Z,58.28
2024-02-06T09:51:20.783Z,58.33
2024-02-06T09:53:51.446Z,58.23
2024-02-06T09:56:23.275Z,58.02
2024-02-06T09:58:54.053Z,58.20
2024-02-06T10:01:26.264Z,57.92
2024-02-06T10:04:01.477Z,57.77
2024-02-06T10:06:33.988Z,57.35
2024-02-06T10:09:05.915Z,57.46
2024-02-06T10:11:37.968Z,57.42
2024-02-06T10:14:09.307Z,57.08
2024-02-06T10:16:40.261Z,57.86
2024-02-06T10:19:10.939Z,57.26
2024-02-06T10:21:42.032Z,57.54
2024-02-06T10:24:12.949Z,57.60
2024-02-06T10:26:43.488Z,57.75
2024-02-06T10:29:21.103Z,57.86
2024-02-06T10:31:52.238Z,57.79
2024-02-06T10:34:23.871Z,57.65
2024-02-06T10:37:03.346Z,57.87
2024-02-06T10:39:34.110Z,57.69
2024-02-06T10:44:39.000Z,57.58
2024-02-06T10:47:09.756Z,57.79
2024-02-06T10:49:40.388Z,57.95
2024-02-06T10:52:12.491Z,57.79
2024-02-06T10:54:43.105Z,58.03
2024-02-06T10:57:17.214Z,57.98
2024-02-06T10:59:56.165Z,58.28
2024-02-06T11:02:29.341Z,58.10
2024-02-06T11:05:15.454Z,58.46
2024-02-06T11:07:58.585Z,58.81
2024-02-06T11:10:45.528Z,58.71
2024-02-06T11:13:23.639Z,59.01
2024-02-06T11:15:59.379Z,59.29
2024-02-06T11:18:33.733Z,59.60
2024-02-06T11:21:08.354Z,59.24
2024-02-06T11:23:39.465Z,59.62
2024-02-06T11:26:11.706Z,59.57
2024-02-06T11:28:42.781Z,59.84
2024-02-06T11:31:13.481Z,59.86
2024-02-06T11:33:45.483Z,59.91
2024-02-06T11:36:19.725Z,60.09
2024-02-06T11:38:50.426Z,60.20
2024-02-06T11:41:41.963Z,60.25
2024-02-06T11:44:16.043Z,60.29
2024-02-06T11:46:51.424Z,60.50
2024-02-06T11:49:29.736Z,60.50
2024-02-06T11:52:00.741Z,60.66
2024-02-06T11:54:31.982Z,60.70
2024-02-06T11:57:04.022Z,60.69
2024-02-06T11:59:34.842Z,60.68
2024-02-06T12:02:15.073Z,60.84
2024-02-06T12:04:46.074Z,60.97
2024-02-06T12:07:18.695Z,61.09
2024-02-06T12:09:52.870Z,61.15
2024-02-06T12:12:23.903Z,61.24
2024-02-06T12:14:54.815Z,61.11
2024-02-06T12:17:26.423Z,61.06
2024-02-06T12:19:57.189Z,61.42
2024-02-06T12:22:27.987Z,61.45
2024-02-06T12:25:05.667Z,61.43
2024-02-06T12:27:36.731Z,61.59
2024-02-06T12:30:07.541Z,62.03
2024-02-06T12:32:39.045Z,61.60
2024-02-06T12:35:09.420Z,61.52
2024-02-06T12:37:40.153Z,61.58
2024-02-06T12:40:11.382Z,61.83
2024-02-06T12:42:41.524Z,62.04
2024-02-06T12:45:12.308Z,62.29
2024-02-06T12:47:43.724Z,62.54
2024-02-06T12:50:15.210Z,62.82
2024-02-06T12:52:52.581Z,62.82
2024-02-06T12:55:23.770Z,62.72
2024-02-06T12:58:00.729Z,62.75
2024-02-06T13:00:31.463Z,62.62
2024-02-06T13:03:03.872Z,62.69
2024-02-06T13:05:37.760Z,62.76
2024-02-06T13:08:16.178Z,62.58
2024-02-06T13:10:46.800Z,62.64
2024-02-06T13:13:23.939Z,62.75
2024-02-06T13:15:54.465Z,62.70
2024-02-06T13:18:24.980Z,62.79
2024-02-06T13:21:01.607Z,62.84
2024-02-06T13:23:32.263Z,62.82
2024-02-06T13:26:07.869Z,62.77
2024-02-06T13:28:38.602Z,62.82
2024-02-06T13:31:11.034Z,62.45
2024-02-06T13:33:43.961Z,62.81
2024-02-06T13:36:14.528Z,63.20
2024-02-06T13:38:45.048Z,62.79
2024-02-06T13:41:15.598Z,62.97
2024-02-06T13:43:46.851Z,62.85
2024-02-06T13:46:21.220Z,62.85
2024-02-06T13:48:52.578Z,63.21
2024-02-06T13:51:23.300Z,63.20
2024-02-06T13:53:54.047Z,63.42
2024-02-06T13:56:27.459Z,63.72
2024-02-06T13:58:58.570Z,63.76
2024-02-06T14:01:29.512Z,64.13
2024-02-06T14:04:00.929Z,64.12
2024-02-06T14:06:31.592Z,64.41
2024-02-06T14:09:02.140Z,64.23
2024-02-06T14:12:29.562Z,64.43
2024-02-06T14:15:03.047Z,64.51
2024-02-06T14:17:33.488Z,64.48
2024-02-06T14:20:04.370Z,64.96
2024-02-06T14:22:35.190Z,65.23
2024-02-06T14:25:08.320Z,65.25
2024-02-06T14:27:38.911Z,65.39
2024-02-06T14:30:10.851Z,65.50
2024-02-06T14:32:41.464Z,65.66
2024-02-06T14:35:12.908Z,65.83
2024-02-06T14:37:43.601Z,65.81
2024-02-06T14:40:17.323Z,66.28
2024-02-06T14:42:48.008Z,65.96
2024-02-06T14:45:20.092Z,66.39
2024-02-06T14:47:50.646Z,66.84
2024-02-06T14:50:21.577Z,67.08
2024-02-06T14:52:52.588Z,67.35
2024-02-06T14:55:22.951Z,67.19
2024-02-06T14:57:53.362Z,67.36
2024-02-06T15:00:23.921Z,67.15
2024-02-06T15:03:25.769Z,66.83
2024-02-06T15:06:11.307Z,66.73
2024-02-06T15:08:57.406Z,66.47
2024-02-06T15:11:38.046Z,66.82
2024-02-06T15:14:08.648Z,66.91
2024-02-06T15:17:01.119Z,67.25
2024-02-06T15:19:46.414Z,67.74
2024-02-06T15:22:17.383Z,67.61
2024-02-06T15:24:56.805Z,68.03
2024-02-06T15:27:46.086Z,67.70
2024-02-06T15:30:17.459Z,67.91
2024-02-06T15:32:48.252Z,67.61
2024-02-06T15:35:19.619Z,67.88
2024-02-06T15:37:49.849Z,68.20
2024-02-06T15:40:20.453Z,67.99
2024-02-06T15:42:51.192Z,67.87
2024-02-06T15:45:22.519Z,68.06
2024-02-06T15:47:53.007Z,67.84
2024-02-06T15:50:23.593Z,67.73
2024-02-06T15:52:54.262Z,67.74
2024-02-06T15:55:24.894Z,67.63
2024-02-06T15:57:55.486Z,67.38
2024-02-06T16:00:25.883Z,66.99
2024-02-06T16:02:56.513Z,67.37
2024-02-06T16:05:29.874Z,67.39
2024-02-06T16:08:00.805Z,67.54
2024-02-06T16:10:31.439Z,67.30
2024-02-06T16:13:01.914Z,67.44
2024-02-06T16:15:32.528Z,67.37
2024-02-06T16:18:03.067Z,67.50
2024-02-06T16:20:33.771Z,67.30
2024-02-06T16:23:04.429Z,67.24
2024-02-06T16:25:35.002Z,67.23
2024-02-06T16:28:05.701Z,66.97
2024-02-06T16:30:36.218Z,67.08
2024-02-06T16:33:07.467Z,67.09
2024-02-06T16:35:38.737Z,67.34
2024-02-06T16:38:09.311Z,67.02
2024-02-06T16:40:42.449Z,67.35
2024-02-06T16:43:13.001Z,67.10
2024-02-06T16:45:47.152Z,67.17
2024-02-06T16:48:18.016Z,67.05
2024-02-06T16:50:48.502Z,67.26
2024-02-06T16:53:19.169Z,67.20
2024-02-06T16:55:50.171Z,67.12
2024-02-06T16:58:21.384Z,67.25
2024-02-06T17:00:51.866Z,67.44
2024-02-06T17:03:22.581Z,67.46
2024-02-06T17:05:53.504Z,67.14
2024-02-06T17:08:24.490Z,67.69
2024-02-06T17:10:55.022Z,67.75
2024-02-06T17:13:25.788Z,67.76
2024-02-06T17:15:56.298Z,67.72
2024-02-06T17:18:31.575Z,67.46
2024-02-06T17:21:02.378Z,67.60
2024-02-06T17:23:33.249Z,67.60
2024-02-06T17:26:04.969Z,67.87
2024-02-06T17:28:35.721Z,67.64
2024-02-06T17:31:06.159Z,67.87
2024-02-06T17:33:36.958Z,68.17
2024-02-06T17:36:07.924Z,67.64
2024-02-06T17:38:39.500Z,67.60
2024-02-06T17:41:10.744Z,67.95
2024-02-06T17:43:41.923Z,67.95
2024-02-06T17:46:18.131Z,67.63
2024-02-06T17:48:48.737Z,67.73
2024-02-06T17:51:19.222Z,67.86
2024-02-06T17:53:49.845Z,67.70
2024-02-06T17:56:20.278Z,67.86
2024-02-06T17:58:50.961Z,67.90
2024-02-06T18:01:21.594Z,67.67
2024-02-06T18:03:52.284Z,67.99
2024-02-06T18:06:23.104Z,67.69
2024-02-06T18:08:53.549Z,67.74
2024-02-06T18:11:24.160Z,67.58
2024-02-06T18:13:54.854Z,67.96
2024-02-06T18:16:25.622Z,67.54
2024-02-06T18:19:20.655Z,67.88
2024-02-06T18:21:51.138Z,67.74
2024-02-06T18:24:21.606Z,67.95
2024-02-06T18:26:52.053Z,67.76
2024-02-06T18:29:22.597Z,67.65
2024-02-06T18:31:54.275Z,67.67
2024-02-06T18:34:25.110Z,67.62
2024-02-06T18:36:55.685Z,67.71
2024-02-06T18:39:26.541Z,67.99
2024-02-06T18:41:57.457Z,67.84
2024-02-06T18:44:27.889Z,67.66
2024-02-06T18:47:00.303Z,67.65
2024-02-06T18:49:31.759Z,67.83
2024-02-06T18:52:03.100Z,67.77
2024-02-06T18:54:37.875Z,67.77
2024-02-06T18:57:08.435Z,67.90
2024-02-06T18:59:39.028Z,67.68
2024-02-06T19:02:09.638Z,67.96
2024-02-06T19:04:40.869Z,67.81
2024-02-06T19:07:11.556Z,68.12
2024-02-06T19:09:42.992Z,68.41
2024-02-06T19:12:13.510Z,67.80
2024-02-06T19:14:44.207Z,67.99
2024-02-06T19:17:14.864Z,67.97
2024-02-06T19:19:48.979Z,67.93
2024-02-06T19:22:19.849Z,68.14
2024-02-06T19:24:50.383Z,68.15
2024-02-06T19:27:29.531Z,68.03
2024-02-06T19:29:59.984Z,68.01
2024-02-06T19:32:30.472Z,68.19
2024-02-06T19:35:01.242Z,68.16
2024-02-06T19:37:31.845Z,67.99
2024-02-06T19:40:02.583Z,68.18
2024-02-06T19:42:33.668Z,67.75
2024-02-06T19:45:04.114Z,68.27
2024-02-06T19:47:34.930Z,68.39
2024-02-06T19:50:05.692Z,68.14
2024-02-06T19:52:36.364Z,68.01
2024-02-06T19:55:07.605Z,68.33
2024-02-06T19:57:41.014Z,68.32
2024-02-06T20:00:13.833Z,67.98
2024-02-06T20:02:59.761Z,68.00
2024-02-06T20:05:59.862Z,68.36
2024-02-06T20:08:33.486Z,68.35
2024-02-06T20:11:07.942Z,68.67
2024-02-06T20:13:38.455Z,68.33
2024-02-06T20:16:09.670Z,68.35
2024-02-06T20:19:35.255Z,68.41
2024-02-06T20:22:05.968Z,68.58
2024-02-06T20:24:36.542Z,68.41
2024-02-06T20:27:07.529Z,68.70
2024-02-06T20:29:38.527Z,68.56
2024-02-06T20:32:10.391Z,68.30
2024-02-06T20:34:42.151Z,68.47
2024-02-06T20:37:12.707Z,68.64
2024-02-06T20:39:43.265Z,68.69
2024-02-06T20:42:13.781Z,68.66
2024-02-06T20:44:46.705Z,68.52
2024-02-06T20:47:18.167Z,68.45
2024-02-06T20:49:49.000Z,68.62
2024-02-06T20:52:19.680Z,68.70
2024-02-06T20:54:50.221Z,68.67
2024-02-06T20:57:20.926Z,68.85
2024-02-06T20:59:51.392Z,68.74
2024-02-06T21:02:21.998Z,68.75
2024-02-06T21:04:52.650Z,68.57
2024-02-06T21:07:23.294Z,68.61
2024-02-06T21:09:53.846Z,68.64
2024-02-06T21:12:24.711Z,69.00
2024-02-06T21:14:55.979Z,68.93
2024-02-06T21:17:27.374Z,68.95
2024-02-06T21:19:59.599Z,68.96
2024-02-06T21:22:30.334Z,68.88
2024-02-06T21:25:00.887Z,68.83
2024-02-06T21:27:31.438Z,68.67
2024-02-06T21:30:01.937Z,69.08
2024-02-06T21:32:32.397Z,68.89
2024-02-06T21:35:02.993Z,68.90
2024-02-06T21:37:33.651Z,69.04
2024-02-06T21:40:04.188Z,68.84
2024-02-06T21:42:34.665Z,69.13
2024-02-06T21:45:07.756Z,68.92
2024-02-06T21:47:40.240Z,69.25
2024-02-06T21:50:12.525Z,69.27
2024-02-06T21:52:43.394Z,69.21
2024-02-06T21:55:14.451Z,69.04
2024-02-06T21:57:44.822Z,69.49
2024-02-06T22:00:15.760Z,69.45
2024-02-06T22:02:47.236Z,69.50
2024-02-06T22:05:18.160Z,69.47
2024-02-06T22:07:49.080Z,69.04
2024-02-06T22:10:23.977Z,69.24
2024-02-06T22:12:54.671Z,69.11
2024-02-06T22:15:25.638Z,69.18
2024-02-06T22:17:56.213Z,69.23
2024-02-06T22:20:28.630Z,69.12
2024-02-06T22:22:59.474Z,69.17
2024-02-06T22:25:30.057Z,69.58
2024-02-06T22:28:00.714Z,69.71
2024-02-06T22:30:31.218Z,69.79
2024-02-06T22:33:01.677Z,70.15
2024-02-06T22:35:33.279Z,69.76
2024-02-06T22:38:03.744Z,69.85
2024-02-06T22:40:34.243Z,69.80
2024-02-06T22:43:05.068Z,69.70
2024-02-06T22:45:35.527Z,70.05
2024-02-06T22:48:06.289Z,69.80
2024-02-06T22:50:37.889Z,70.04
2024-02-06T22:53:08.579Z,69.44
2024-02-06T22:55:39.319Z,70.05
2024-02-06T22:58:09.856Z,69.77
2024-02-06T23:01:05.345Z,69.34
2024-02-06T23:03:37.321Z,69.18
2024-02-06T23:06:08.274Z,69.24
2024-02-06T23:08:38.940Z,69.53
2024-02-06T23:11:09.524Z,69.54
2024-02-06T23:13:40.248Z,69.63
2024-02-06T23:16:12.568Z,69.43
2024-02-06T23:18:43.463Z,69.77
2024-02-06T23:21:18.756Z,69.76
2024-02-06T23:23:49.200Z,69.85
2024-02-06T23:26:19.949Z,69.61
2024-02-06T23:28:51.119Z,69.24
2024-02-06T23:31:21.701Z,69.69
2024-02-06T23:33:52.135Z,69.60
2024-02-06T23:36:23.074Z,69.48
2024-02-06T23:39:08.917Z,69.78
2024-02-06T23:41:45.759Z,69.53
2024-02-06T23:44:16.224Z,69.79
2024-02-06T23:46:46.870Z,69.43
2024-02-06T23:49:17.822Z,69.14
2024-02-06T23:51:48.391Z,69.56
2024-02-06T23:54:19.149Z,69.65
2024-02-06T23:56:50.115Z,69.80
2024-02-06T23:59:20.846Z,69.36
